Saint Petersburg, Florida
Current Conditions -  °F | °C
As of 6:53 PM on Friday 28 Nov 2014 (Local Time) from KSPG Reporting Station
Clear Clear  
Wind Chill: 15°   Ceiling: Unl
Heat Index: 15°   Visibility: 10mi
Dew Point:   Wind: 12mph
Humidity: 46%   Direction: 80°E
Pressure: 30.25"   Gusts: NA
Location:  27.77°N, 82.63°W
Report Text: KSPG 282353Z AUTO 08010KT 10SM CLR 15/03 A3025 RMK AO2 SLP244 T01500033 10161 20128 51006
Loading
Personal Weather Stations






























Interactive Weather Map New forecast layout! Learn more

10-Day Weather Forecast

Advertisements
Track Severe Weather on mobile